Time;durP1;ratioP1;P1;durP2;ratioP2;P2;SDS_P1;SDS_P2;PMS_P1;PMS_P2;Temp;Humidity;BMP_temperature;BMP_pressure;BME280_temperature;BME280_humidity;BME280_pressure;Samples;Min_cycle;Max_cycle;Signal;HPM_P1;HPM_P2
2023/10/30 00:01:45;;;;;;;18.52;11.95;;;;;;;;;;6228301;28;20088;-93
2023/10/30 00:04:47;;;;;;;18.15;11.88;;;;;;;;;;6249852;28;20113;-94
2023/10/30 00:07:49;;;;;;;19.55;11.90;;;;;;;;;;6246969;28;20065;-93
2023/10/30 00:10:51;;;;;;;16.60;11.48;;;;;;;;;;6246109;28;20053;-96
2023/10/30 00:13:55;;;;;;;15.23;11.35;;;;;;;;;;6237719;28;20055;-95
2023/10/30 00:16:57;;;;;;;15.82;11.38;;;;;;;;;;6228012;28;20068;-92
2023/10/30 00:19:59;;;;;;;15.23;11.60;;;;;;;;;;6248506;28;20372;-91
2023/10/30 00:23:01;;;;;;;16.45;10.85;;;;;;;;;;6247955;28;20133;-94
2023/10/30 00:26:03;;;;;;;18.17;12.75;;;;;;;;;;6456430;22;20063;-93
2023/10/30 00:29:07;;;;;;;27.40;15.80;;;;;;;;;;6276891;28;20057;-93
2023/10/30 00:32:09;;;;;;;42.63;24.80;;;;;;;;;;6260040;28;20327;-90
2023/10/30 00:35:12;;;;;;;35.92;22.35;;;;;;;;;;6274129;28;20049;-94
2023/10/30 00:38:14;;;;;;;54.35;31.30;;;;;;;;;;6275007;28;20048;-92
2023/10/30 00:41:16;;;;;;;100.68;52.38;;;;;;;;;;6276311;28;20049;-94
2023/10/30 00:44:19;;;;;;;38.10;22.60;;;;;;;;;;6257861;28;20061;-94
2023/10/30 00:47:22;;;;;;;84.32;43.50;;;;;;;;;;6271656;28;20342;-91
2023/10/30 00:50:23;;;;;;;22.02;15.98;;;;;;;;;;6271826;28;20045;-93
2023/10/30 00:53:25;;;;;;;18.15;12.65;;;;;;;;;;6267730;28;20054;-94
2023/10/30 00:56:27;;;;;;;20.25;14.00;;;;;;;;;;6269454;28;20045;-96
2023/10/30 00:59:31;;;;;;;16.80;12.98;;;;;;;;;;6259215;28;20064;-94
2023/10/30 01:02:32;;;;;;;18.55;13.82;;;;;;;;;;6250264;28;20049;-95
2023/10/30 01:05:35;;;;;;;18.45;13.38;;;;;;;;;;6275133;28;20068;-95
2023/10/30 01:08:37;;;;;;;22.20;15.07;;;;;;;;;;6275543;28;20056;-96
2023/10/30 01:11:39;;;;;;;19.17;14.02;;;;;;;;;;6253421;28;20332;-93
2023/10/30 01:14:43;;;;;;;20.73;14.18;;;;;;;;;;6255651;28;20124;-94
2023/10/30 01:17:45;;;;;;;19.25;14.38;;;;;;;;;;6255907;28;20041;-95
2023/10/30 01:20:47;;;;;;;18.52;13.88;;;;;;;;;;6275835;28;20071;-93
2023/10/30 01:23:49;;;;;;;20.13;14.38;;;;;;;;;;6275306;28;20061;-94
2023/10/30 01:26:51;;;;;;;19.70;14.52;;;;;;;;;;6272369;28;20253;-95
2023/10/30 01:30:02;;;;;;;18.95;13.98;;;;;;;;;;6276225;28;20055;-95
2023/10/30 01:33:04;;;;;;;18.27;13.15;;;;;;;;;;6273093;28;20048;-95
2023/10/30 01:36:07;;;;;;;18.48;13.90;;;;;;;;;;6267499;28;20056;-94
2023/10/30 01:39:09;;;;;;;18.58;13.55;;;;;;;;;;6243092;28;20051;-94
2023/10/30 01:42:12;;;;;;;19.40;14.05;;;;;;;;;;6271386;28;20057;-96
2023/10/30 01:45:15;;;;;;;18.33;14.35;;;;;;;;;;6237769;28;20040;-95
2023/10/30 01:48:17;;;;;;;20.50;14.48;;;;;;;;;;6264557;28;20064;-92
2023/10/30 01:51:20;;;;;;;22.25;15.02;;;;;;;;;;6270750;28;20045;-93
2023/10/30 01:54:22;;;;;;;22.85;15.82;;;;;;;;;;6275013;28;20052;-96
2023/10/30 01:57:25;;;;;;;22.85;15.02;;;;;;;;;;6271453;28;20091;-94
2023/10/30 02:00:29;;;;;;;21.20;15.18;;;;;;;;;;6269947;28;20413;-95
2023/10/30 02:03:31;;;;;;;23.60;15.30;;;;;;;;;;6242107;28;20071;-93
2023/10/30 02:06:33;;;;;;;24.35;15.57;;;;;;;;;;6273155;28;20074;-94
2023/10/30 02:09:35;;;;;;;23.75;17.23;;;;;;;;;;6255246;28;20056;-95
2023/10/30 02:12:37;;;;;;;25.10;17.25;;;;;;;;;;6272805;28;20061;-94
2023/10/30 02:15:43;;;;;;;27.00;17.60;;;;;;;;;;6274123;28;20057;-93
2023/10/30 02:18:45;;;;;;;25.90;17.67;;;;;;;;;;6233783;28;20065;-96
2023/10/30 02:21:47;;;;;;;26.48;17.17;;;;;;;;;;6274649;28;20056;-94
2023/10/30 02:24:50;;;;;;;26.30;18.13;;;;;;;;;;6270157;28;20341;-94
2023/10/30 02:27:53;;;;;;;32.03;18.88;;;;;;;;;;6273543;28;20048;-95
2023/10/30 02:30:56;;;;;;;24.10;16.80;;;;;;;;;;6255353;28;20049;-95
2023/10/30 02:33:58;;;;;;;30.05;17.95;;;;;;;;;;6272220;28;20057;-96
2023/10/30 02:37:02;;;;;;;29.58;16.73;;;;;;;;;;6269957;28;20489;-95
2023/10/30 02:40:05;;;;;;;29.60;17.10;;;;;;;;;;6262539;28;20056;-96
2023/10/30 02:43:08;;;;;;;30.23;17.92;;;;;;;;;;6246049;28;20111;-96
2023/10/30 02:46:10;;;;;;;28.90;16.73;;;;;;;;;;6277236;28;20057;-96
2023/10/30 02:49:12;;;;;;;27.80;17.65;;;;;;;;;;6275075;28;20049;-96
2023/10/30 02:52:14;;;;;;;32.28;18.20;;;;;;;;;;6272662;28;20051;-94
2023/10/30 02:55:16;;;;;;;30.45;18.63;;;;;;;;;;6272757;28;20057;-95
2023/10/30 02:58:19;;;;;;;34.15;17.75;;;;;;;;;;6272115;28;20048;-93
2023/10/30 03:01:21;;;;;;;36.70;18.92;;;;;;;;;;6262075;28;20049;-95
2023/10/30 03:04:24;;;;;;;31.95;18.00;;;;;;;;;;6263980;28;20063;-96
2023/10/30 03:07:25;;;;;;;30.63;18.13;;;;;;;;;;6274458;28;20358;-94
2023/10/30 03:10:27;;;;;;;36.63;18.27;;;;;;;;;;6279331;28;20121;-95
2023/10/30 03:13:31;;;;;;;34.75;19.45;;;;;;;;;;6258838;28;20049;-95
2023/10/30 03:16:33;;;;;;;38.85;19.40;;;;;;;;;;6273847;28;20055;-96
2023/10/30 03:19:34;;;;;;;35.72;19.60;;;;;;;;;;6276094;28;20056;-96
2023/10/30 03:22:36;;;;;;;35.50;19.83;;;;;;;;;;6276401;28;20053;-94
2023/10/30 03:25:38;;;;;;;38.65;21.23;;;;;;;;;;6275842;28;20285;-92
2023/10/30 03:28:42;;;;;;;41.00;21.35;;;;;;;;;;6272883;28;20064;-96
2023/10/30 03:31:43;;;;;;;39.33;21.80;;;;;;;;;;6258478;28;20054;-96
2023/10/30 03:34:45;;;;;;;44.30;21.65;;;;;;;;;;6275631;28;20056;-96
2023/10/30 03:37:47;;;;;;;41.58;22.33;;;;;;;;;;6276254;28;20246;-94
2023/10/30 03:40:49;;;;;;;43.97;21.92;;;;;;;;;;6270418;28;20340;-95
2023/10/30 03:43:52;;;;;;;43.80;22.27;;;;;;;;;;6274594;28;20060;-94
2023/10/30 03:46:54;;;;;;;41.13;21.15;;;;;;;;;;6278881;28;20095;-94
2023/10/30 03:49:56;;;;;;;47.75;22.70;;;;;;;;;;6274944;28;20064;-94
2023/10/30 03:52:58;;;;;;;42.50;21.05;;;;;;;;;;6263221;28;20055;-94
2023/10/30 03:56:06;;;;;;;43.85;21.58;;;;;;;;;;6259352;28;20091;-93
2023/10/30 03:59:10;;;;;;;36.10;19.48;;;;;;;;;;6278340;28;20045;-93
2023/10/30 04:02:12;;;;;;;39.55;20.25;;;;;;;;;;6273845;28;20087;-94
2023/10/30 04:05:14;;;;;;;37.80;21.05;;;;;;;;;;6275868;28;20328;-95
2023/10/30 04:08:15;;;;;;;38.28;20.73;;;;;;;;;;6278519;28;20053;-94
2023/10/30 04:11:18;;;;;;;38.65;18.60;;;;;;;;;;6272179;28;20067;-95
2023/10/30 04:14:21;;;;;;;39.70;18.85;;;;;;;;;;6272129;28;20067;-95
2023/10/30 04:17:23;;;;;;;35.05;18.05;;;;;;;;;;6273389;28;20281;-93
2023/10/30 04:20:26;;;;;;;35.55;17.15;;;;;;;;;;6260846;28;20053;-92
2023/10/30 04:23:28;;;;;;;35.78;17.95;;;;;;;;;;6276455;28;20061;-95
2023/10/30 04:26:30;;;;;;;34.92;17.23;;;;;;;;;;6270121;28;20068;-95
2023/10/30 04:29:33;;;;;;;35.70;17.30;;;;;;;;;;6275634;28;20049;-94
2023/10/30 04:32:35;;;;;;;;;;;;;;;;;;6260844;28;20103;-93
2023/10/30 04:35:37;;;;;;;36.53;16.85;;;;;;;;;;6271367;28;19917;-94
2023/10/30 04:38:39;;;;;;;33.17;17.42;;;;;;;;;;6275744;28;20064;-91
2023/10/30 04:41:41;;;;;;;31.20;18.23;;;;;;;;;;6279024;28;20116;-94
2023/10/30 04:44:44;;;;;;;30.63;17.73;;;;;;;;;;6274534;28;20061;-92
2023/10/30 04:47:46;;;;;;;33.42;16.60;;;;;;;;;;6277053;28;20121;-92
2023/10/30 04:50:47;;;;;;;36.22;17.83;;;;;;;;;;6273466;28;20091;-96
2023/10/30 04:53:49;;;;;;;33.50;17.38;;;;;;;;;;6272962;28;20053;-93
2023/10/30 04:56:51;;;;;;;33.80;17.90;;;;;;;;;;6255006;28;20053;-92
2023/10/30 04:59:55;;;;;;;32.42;17.63;;;;;;;;;;6273656;28;20156;-93
2023/10/30 05:02:57;;;;;;;30.90;16.45;;;;;;;;;;6260420;28;20075;-95
2023/10/30 05:06:02;;;;;;;34.85;18.10;;;;;;;;;;6273420;28;20063;-95
2023/10/30 05:09:04;;;;;;;33.65;16.80;;;;;;;;;;6277041;28;20245;-92
2023/10/30 05:12:07;;;;;;;32.70;17.60;;;;;;;;;;6276986;28;20110;-93
2023/10/30 05:15:10;;;;;;;33.95;18.52;;;;;;;;;;6275669;28;20049;-95
2023/10/30 05:18:12;;;;;;;37.00;18.33;;;;;;;;;;6273792;28;20490;-93
2023/10/30 05:21:14;;;;;;;28.67;17.30;;;;;;;;;;6277164;28;20047;-94
2023/10/30 05:24:16;;;;;;;35.85;18.50;;;;;;;;;;6269209;28;20049;-95
2023/10/30 05:27:18;;;;;;;34.30;18.08;;;;;;;;;;6273288;28;20061;-95
2023/10/30 05:30:21;;;;;;;37.65;18.48;;;;;;;;;;6240345;28;20045;-95
2023/10/30 05:33:23;;;;;;;35.60;19.15;;;;;;;;;;6272707;28;20057;-95
2023/10/30 05:36:25;;;;;;;38.17;19.45;;;;;;;;;;6269594;28;20060;-94
2023/10/30 05:39:27;;;;;;;32.10;18.15;;;;;;;;;;6271801;28;20052;-95
2023/10/30 05:42:29;;;;;;;36.58;19.42;;;;;;;;;;6254392;28;20068;-95
2023/10/30 05:45:32;;;;;;;37.10;19.00;;;;;;;;;;6254846;28;20247;-96
2023/10/30 05:48:34;;;;;;;40.28;19.90;;;;;;;;;;6270029;28;20050;-96
2023/10/30 05:51:36;;;;;;;36.65;20.05;;;;;;;;;;6275227;28;20045;-95
2023/10/30 05:54:38;;;;;;;35.72;18.85;;;;;;;;;;6261440;28;20045;-94
2023/10/30 05:57:41;;;;;;;36.22;19.25;;;;;;;;;;6276600;28;20045;-95
2023/10/30 06:00:44;;;;;;;41.38;19.48;;;;;;;;;;6260168;28;20321;-94
2023/10/30 06:03:46;;;;;;;33.53;18.73;;;;;;;;;;6275644;28;20112;-95
2023/10/30 06:06:48;;;;;;;32.45;18.33;;;;;;;;;;6273930;28;20064;-92
2023/10/30 06:09:50;;;;;;;37.17;19.92;;;;;;;;;;6257764;28;20061;-92
2023/10/30 06:12:52;;;;;;;35.80;19.38;;;;;;;;;;6255975;28;20049;-93
2023/10/30 06:15:56;;;;;;;39.13;18.77;;;;;;;;;;6270680;28;20325;-93
2023/10/30 06:18:58;;;;;;;37.03;19.15;;;;;;;;;;6273953;28;20075;-94
2023/10/30 06:22:00;;;;;;;39.92;19.88;;;;;;;;;;6267542;28;20073;-92
2023/10/30 06:25:01;;;;;;;34.17;18.92;;;;;;;;;;6268534;28;20340;-93
2023/10/30 06:28:04;;;;;;;34.17;19.20;;;;;;;;;;6272321;28;20069;-91
2023/10/30 06:31:14;;;;;;;34.65;18.58;;;;;;;;;;6268432;28;20337;-93
2023/10/30 06:34:16;;;;;;;32.90;19.35;;;;;;;;;;6252628;28;20049;-92
2023/10/30 06:37:17;;;;;;;38.22;19.55;;;;;;;;;;6275532;28;20049;-93
2023/10/30 06:40:19;;;;;;;29.15;17.27;;;;;;;;;;6277986;28;20135;-93
2023/10/30 06:43:21;;;;;;;36.55;18.88;;;;;;;;;;6279637;28;20268;-93
2023/10/30 06:46:24;;;;;;;30.95;18.55;;;;;;;;;;6277235;28;20049;-92
2023/10/30 06:49:26;;;;;;;33.28;18.42;;;;;;;;;;6272697;28;20052;-93
2023/10/30 06:52:28;;;;;;;32.35;18.30;;;;;;;;;;6275537;28;20049;-93
2023/10/30 06:55:31;;;;;;;32.75;18.80;;;;;;;;;;6277665;28;20355;-92
2023/10/30 06:58:33;;;;;;;29.90;17.27;;;;;;;;;;6276714;28;20064;-95
2023/10/30 07:01:43;;;;;;;32.60;19.10;;;;;;;;;;6281729;28;20068;-94
2023/10/30 07:04:45;;;;;;;31.05;17.00;;;;;;;;;;6274365;28;20294;-94
2023/10/30 07:07:47;;;;;;;28.08;17.95;;;;;;;;;;6275931;28;20063;-94
2023/10/30 07:10:49;;;;;;;26.00;16.45;;;;;;;;;;6277567;28;20056;-92
2023/10/30 07:13:51;;;;;;;26.65;16.55;;;;;;;;;;6272916;28;20049;-94
2023/10/30 07:16:55;;;;;;;26.48;16.27;;;;;;;;;;6259518;28;20048;-95
2023/10/30 07:19:57;;;;;;;27.30;15.85;;;;;;;;;;6258769;28;20608;-92
2023/10/30 07:22:58;;;;;;;24.38;15.05;;;;;;;;;;6281572;28;20109;-94
2023/10/30 07:26:00;;;;;;;22.67;14.43;;;;;;;;;;6279588;28;20056;-93
2023/10/30 07:29:02;;;;;;;22.10;13.63;;;;;;;;;;6267231;28;20040;-94
2023/10/30 07:32:08;;;;;;;23.27;14.40;;;;;;;;;;6260270;28;20288;-90
2023/10/30 07:35:10;;;;;;;21.90;13.23;;;;;;;;;;6274421;28;20112;-93
2023/10/30 07:38:13;;;;;;;21.13;14.40;;;;;;;;;;6279536;28;20045;-93
2023/10/30 07:41:14;;;;;;;23.98;14.02;;;;;;;;;;6275456;28;20073;-92
2023/10/30 07:44:16;;;;;;;25.48;14.73;;;;;;;;;;6278269;28;20057;-92
2023/10/30 07:47:21;;;;;;;24.60;14.52;;;;;;;;;;6272830;28;20101;-93
2023/10/30 07:50:22;;;;;;;22.13;12.68;;;;;;;;;;6257313;28;20259;-92
2023/10/30 07:53:24;;;;;;;19.13;12.18;;;;;;;;;;6273104;28;20053;-93
2023/10/30 07:56:26;;;;;;;24.88;13.15;;;;;;;;;;6279441;28;20052;-94
2023/10/30 07:59:29;;;;;;;23.95;12.70;;;;;;;;;;6274970;28;20048;-94
2023/10/30 08:02:32;;;;;;;24.15;14.20;;;;;;;;;;6261436;28;20173;-93
2023/10/30 08:05:35;;;;;;;28.80;15.63;;;;;;;;;;6271751;28;20057;-94
2023/10/30 08:08:37;;;;;;;27.33;16.10;;;;;;;;;;6274808;28;20520;-94
2023/10/30 08:11:39;;;;;;;24.83;14.05;;;;;;;;;;6271849;28;20052;-93
2023/10/30 08:14:42;;;;;;;26.15;15.68;;;;;;;;;;6274825;28;20040;-92
2023/10/30 08:17:45;;;;;;;26.05;15.65;;;;;;;;;;6270626;28;20057;-91
2023/10/30 08:20:47;;;;;;;29.55;16.95;;;;;;;;;;6276516;28;20083;-93
2023/10/30 08:23:49;;;;;;;24.92;16.23;;;;;;;;;;6275046;28;20341;-92
2023/10/30 08:26:51;;;;;;;27.83;18.13;;;;;;;;;;6273283;28;20061;-93
2023/10/30 08:29:53;;;;;;;28.13;18.05;;;;;;;;;;6271514;28;20049;-94
2023/10/30 08:32:57;;;;;;;27.60;18.27;;;;;;;;;;6271888;28;20055;-92
2023/10/30 08:35:58;;;;;;;27.77;17.30;;;;;;;;;;6235386;28;20272;-93
2023/10/30 08:39:00;;;;;;;26.13;17.52;;;;;;;;;;6275285;28;20244;-93
2023/10/30 08:42:02;;;;;;;31.98;18.13;;;;;;;;;;6274639;28;20057;-93
2023/10/30 08:45:05;;;;;;;35.78;19.58;;;;;;;;;;6272634;28;20056;-93
2023/10/30 08:48:08;;;;;;;33.40;19.52;;;;;;;;;;6277566;28;20106;-94
2023/10/30 08:51:10;;;;;;;33.53;18.65;;;;;;;;;;6263378;28;20052;-93
2023/10/30 08:54:12;;;;;;;33.63;19.67;;;;;;;;;;6273498;28;20360;-93
2023/10/30 08:57:14;;;;;;;30.95;19.20;;;;;;;;;;6274455;28;20056;-94
2023/10/30 09:00:16;;;;;;;29.40;18.38;;;;;;;;;;6275269;28;20110;-93
2023/10/30 09:03:19;;;;;;;33.55;19.48;;;;;;;;;;6273855;28;20053;-93
2023/10/30 09:06:22;;;;;;;29.23;19.07;;;;;;;;;;6274341;28;20544;-92
2023/10/30 09:09:23;;;;;;;28.65;18.23;;;;;;;;;;6274410;28;20522;-94
2023/10/30 09:12:25;;;;;;;29.33;18.40;;;;;;;;;;6274724;28;20265;-93
2023/10/30 09:15:27;;;;;;;32.50;19.23;;;;;;;;;;6252398;28;20365;-93
2023/10/30 09:18:30;;;;;;;28.58;18.35;;;;;;;;;;6277898;28;20056;-91
2023/10/30 09:21:32;;;;;;;29.20;18.52;;;;;;;;;;6270811;28;20049;-93
2023/10/30 09:24:34;;;;;;;29.70;19.20;;;;;;;;;;6278198;28;20048;-95
2023/10/30 09:27:36;;;;;;;28.40;18.27;;;;;;;;;;6274119;28;20210;-92
2023/10/30 09:30:38;;;;;;;29.77;18.52;;;;;;;;;;6274896;28;20044;-95
2023/10/30 09:33:42;;;;;;;31.23;19.35;;;;;;;;;;6277460;28;20122;-91
2023/10/30 09:36:44;;;;;;;31.70;20.00;;;;;;;;;;6256028;28;20061;-93
2023/10/30 09:39:47;;;;;;;29.60;20.15;;;;;;;;;;6273841;28;20145;-93
2023/10/30 09:42:52;;;;;;;31.02;19.77;;;;;;;;;;6273929;28;20053;-92
2023/10/30 09:45:54;;;;;;;31.83;21.08;;;;;;;;;;6257305;28;20053;-94
2023/10/30 09:48:59;;;;;;;33.30;20.88;;;;;;;;;;6254757;28;20052;-93
2023/10/30 09:52:02;;;;;;;32.47;19.67;;;;;;;;;;6240273;28;20049;-93
2023/10/30 09:55:08;;;;;;;36.92;21.17;;;;;;;;;;6253020;28;20049;-93
2023/10/30 09:58:11;;;;;;;43.63;22.33;;;;;;;;;;6241403;28;20053;-93
2023/10/30 10:01:12;;;;;;;30.42;20.55;;;;;;;;;;6271078;28;20084;-92
2023/10/30 10:04:16;;;;;;;38.60;21.30;;;;;;;;;;6271259;28;20317;-93
2023/10/30 10:07:19;;;;;;;35.47;20.92;;;;;;;;;;6274949;28;20045;-93
2023/10/30 10:10:21;;;;;;;34.85;21.38;;;;;;;;;;6254531;28;20041;-90
2023/10/30 10:13:23;;;;;;;36.05;21.92;;;;;;;;;;6271538;28;20380;-95
2023/10/30 10:16:30;;;;;;;39.67;23.35;;;;;;;;;;6255987;28;20128;-94
2023/10/30 10:19:36;;;;;;;35.20;23.05;;;;;;;;;;6275454;28;20049;-95
2023/10/30 10:22:39;;;;;;;39.65;23.80;;;;;;;;;;6257557;28;20048;-95
2023/10/30 10:25:54;;;;;;;40.00;24.52;;;;;;;;;;6269426;28;20055;-93
2023/10/30 10:28:56;;;;;;;42.47;25.00;;;;;;;;;;6270210;28;20064;-94
2023/10/30 10:31:58;;;;;;;45.22;26.35;;;;;;;;;;6271324;28;20064;-93
2023/10/30 10:35:02;;;;;;;48.47;25.42;;;;;;;;;;6271698;28;20064;-93
2023/10/30 10:38:13;;;;;;;41.22;26.20;;;;;;;;;;6271056;28;20045;-94
2023/10/30 10:41:15;;;;;;;48.17;27.70;;;;;;;;;;6256947;28;20049;-91
2023/10/30 10:44:19;;;;;;;42.92;28.23;;;;;;;;;;6278641;28;20614;-93
2023/10/30 10:47:21;;;;;;;;;;;;;;;;;;6273175;28;20285;-93
2023/10/30 10:50:24;;;;;;;46.08;27.90;;;;;;;;;;6272774;28;19925;-95
2023/10/30 10:53:28;;;;;;;46.33;30.00;;;;;;;;;;6269742;28;20095;-93
2023/10/30 10:56:30;;;;;;;49.95;29.80;;;;;;;;;;6274740;28;20099;-94
2023/10/30 10:59:36;;;;;;;50.15;29.42;;;;;;;;;;6271624;28;20052;-95
2023/10/30 11:02:40;;;;;;;42.03;26.67;;;;;;;;;;6257030;28;20049;-94
2023/10/30 11:05:45;;;;;;;37.13;24.42;;;;;;;;;;6274540;28;20252;-94
2023/10/30 11:08:53;;;;;;;35.28;24.10;;;;;;;;;;6278996;28;20049;-95
2023/10/30 11:12:05;;;;;;;39.85;25.58;;;;;;;;;;6241309;28;20107;-94
2023/10/30 11:15:12;;;;;;;36.72;24.17;;;;;;;;;;6274247;28;20056;-95
2023/10/30 11:18:20;;;;;;;38.13;24.65;;;;;;;;;;6270068;28;20048;-94
2023/10/30 11:21:27;;;;;;;40.83;25.75;;;;;;;;;;6272877;28;20045;-94
2023/10/30 11:24:36;;;;;;;44.88;26.67;;;;;;;;;;6277990;28;20052;-93
2023/10/30 11:27:38;;;;;;;40.53;26.90;;;;;;;;;;6280777;28;20068;-94
2023/10/30 11:30:45;;;;;;;42.33;26.23;;;;;;;;;;6281674;28;20053;-93
2023/10/30 11:33:47;;;;;;;50.47;27.40;;;;;;;;;;6279501;28;20045;-95
2023/10/30 11:36:51;;;;;;;45.47;27.27;;;;;;;;;;6273564;28;20053;-94
2023/10/30 11:39:55;;;;;;;45.33;27.20;;;;;;;;;;6275438;28;20059;-92
2023/10/30 11:42:57;;;;;;;42.63;26.42;;;;;;;;;;6259657;28;20103;-93
2023/10/30 11:46:02;;;;;;;47.38;28.38;;;;;;;;;;6276455;28;20056;-95
2023/10/30 11:49:07;;;;;;;48.17;28.83;;;;;;;;;;6272965;28;20052;-93
2023/10/30 11:52:11;;;;;;;49.25;28.45;;;;;;;;;;6276044;28;20052;-95
2023/10/30 11:55:14;;;;;;;45.70;27.27;;;;;;;;;;6276516;28;20056;-95
2023/10/30 11:58:17;;;;;;;45.28;26.10;;;;;;;;;;6256177;28;20149;-95
2023/10/30 12:01:19;;;;;;;47.83;27.20;;;;;;;;;;6262202;28;20060;-95
2023/10/30 12:04:22;;;;;;;43.28;26.90;;;;;;;;;;6277184;28;20068;-94
2023/10/30 12:07:25;;;;;;;48.65;28.00;;;;;;;;;;6279803;28;20052;-94
2023/10/30 12:10:27;;;;;;;48.53;27.10;;;;;;;;;;6266261;28;20048;-94
2023/10/30 12:13:30;;;;;;;48.08;26.80;;;;;;;;;;6248000;28;20056;-93
2023/10/30 12:16:35;;;;;;;44.03;27.00;;;;;;;;;;6278727;28;20203;-94
2023/10/30 12:19:38;;;;;;;44.08;25.50;;;;;;;;;;6265808;28;20041;-94
2023/10/30 12:22:43;;;;;;;41.73;25.20;;;;;;;;;;6283384;28;20063;-96
2023/10/30 12:25:49;;;;;;;41.97;23.42;;;;;;;;;;6269042;28;20057;-92
2023/10/30 12:28:50;;;;;;;42.85;23.52;;;;;;;;;;6285794;28;20049;-94
2023/10/30 12:31:52;;;;;;;39.58;24.30;;;;;;;;;;6258794;28;20423;-95
2023/10/30 12:34:55;;;;;;;44.85;24.40;;;;;;;;;;6275385;28;20115;-93
2023/10/30 12:37:58;;;;;;;41.95;25.48;;;;;;;;;;6256223;28;20045;-95
2023/10/30 12:41:06;;;;;;;37.97;24.27;;;;;;;;;;6274493;28;20049;-93
2023/10/30 12:44:08;;;;;;;39.40;23.27;;;;;;;;;;6261087;28;20500;-93
2023/10/30 12:47:10;;;;;;;35.78;22.70;;;;;;;;;;6260453;28;20082;-93
2023/10/30 12:50:14;;;;;;;38.67;24.00;;;;;;;;;;6242991;28;20129;-93
2023/10/30 12:53:17;;;;;;;41.15;23.50;;;;;;;;;;6274742;28;20080;-93
2023/10/30 12:56:19;;;;;;;37.45;22.67;;;;;;;;;;6277956;28;20072;-93
2023/10/30 12:59:22;;;;;;;37.83;22.20;;;;;;;;;;6261374;28;20094;-91
2023/10/30 13:02:24;;;;;;;33.40;21.60;;;;;;;;;;6271771;28;20076;-93
2023/10/30 13:05:26;;;;;;;34.60;20.42;;;;;;;;;;6271895;28;20051;-92
2023/10/30 13:08:31;;;;;;;29.55;18.50;;;;;;;;;;6263595;28;20053;-92
2023/10/30 13:11:33;;;;;;;30.88;19.13;;;;;;;;;;6277823;28;20098;-94
2023/10/30 13:14:35;;;;;;;30.73;19.90;;;;;;;;;;6276153;28;20161;-93
2023/10/30 13:17:41;;;;;;;33.65;21.00;;;;;;;;;;6272331;28;20139;-94
2023/10/30 13:20:43;;;;;;;33.75;21.40;;;;;;;;;;6271605;28;20115;-94
2023/10/30 13:23:47;;;;;;;35.17;21.23;;;;;;;;;;6274632;28;20068;-92
2023/10/30 13:26:49;;;;;;;40.55;23.23;;;;;;;;;;6253931;28;20061;-93
2023/10/30 13:29:50;;;;;;;35.33;20.88;;;;;;;;;;6278538;28;20060;-93
2023/10/30 13:32:55;;;;;;;34.65;21.48;;;;;;;;;;6279747;28;20158;-95
2023/10/30 13:35:58;;;;;;;46.22;22.98;;;;;;;;;;6271400;28;20057;-93
2023/10/30 13:39:02;;;;;;;36.15;20.75;;;;;;;;;;6252700;28;20052;-94
2023/10/30 13:42:04;;;;;;;37.30;23.08;;;;;;;;;;6268174;28;20128;-95
2023/10/30 13:45:07;;;;;;;39.20;20.98;;;;;;;;;;6260225;28;20053;-96
2023/10/30 13:48:09;;;;;;;34.03;21.08;;;;;;;;;;6246133;28;20075;-96
2023/10/30 13:51:11;;;;;;;32.35;19.83;;;;;;;;;;6263486;28;20076;-95
2023/10/30 13:54:15;;;;;;;35.15;20.83;;;;;;;;;;6272626;28;20048;-95
2023/10/30 13:57:17;;;;;;;34.45;20.90;;;;;;;;;;6252339;28;20053;-95
2023/10/30 14:00:19;;;;;;;36.22;21.05;;;;;;;;;;6273697;28;20049;-95
2023/10/30 14:03:21;;;;;;;32.95;19.60;;;;;;;;;;6262297;28;20041;-95
2023/10/30 14:06:23;;;;;;;32.55;19.92;;;;;;;;;;6273999;28;20117;-96
2023/10/30 14:09:26;;;;;;;29.30;19.20;;;;;;;;;;6257591;28;20056;-95
2023/10/30 14:12:29;;;;;;;33.45;19.80;;;;;;;;;;6278474;28;20064;-96
2023/10/30 14:15:31;;;;;;;30.70;18.75;;;;;;;;;;6255086;28;20072;-95
2023/10/30 14:18:32;;;;;;;30.92;18.15;;;;;;;;;;6272624;28;20124;-96
2023/10/30 14:21:34;;;;;;;30.88;17.13;;;;;;;;;;6272755;28;20055;-96
2023/10/30 14:24:38;;;;;;;26.88;18.17;;;;;;;;;;6258219;28;20229;-95
2023/10/30 14:27:40;;;;;;;31.98;18.98;;;;;;;;;;6274889;28;20057;-95
2023/10/30 14:30:42;;;;;;;36.55;19.77;;;;;;;;;;6274104;28;20057;-95
2023/10/30 14:33:45;;;;;;;31.38;19.27;;;;;;;;;;6275641;28;20129;-92
2023/10/30 14:36:47;;;;;;;31.00;19.17;;;;;;;;;;6254626;28;20045;-93
2023/10/30 14:39:50;;;;;;;31.10;19.30;;;;;;;;;;6273767;28;20065;-95
2023/10/30 14:42:54;;;;;;;32.95;19.95;;;;;;;;;;6263964;28;21331;-95
2023/10/30 14:45:55;;;;;;;30.27;18.67;;;;;;;;;;6250612;28;20238;-94
2023/10/30 14:48:59;;;;;;;32.17;19.13;;;;;;;;;;6276525;28;20064;-94
2023/10/30 14:52:02;;;;;;;30.63;18.70;;;;;;;;;;6265750;28;20053;-94
2023/10/30 14:55:07;;;;;;;31.33;18.55;;;;;;;;;;6274740;28;20960;-93
2023/10/30 14:58:08;;;;;;;25.67;17.70;;;;;;;;;;6277731;28;20116;-94
2023/10/30 15:01:10;;;;;;;30.45;18.67;;;;;;;;;;6255446;28;20041;-93
2023/10/30 15:04:12;;;;;;;26.77;17.17;;;;;;;;;;6263430;28;20061;-94
2023/10/30 15:07:14;;;;;;;29.80;17.20;;;;;;;;;;6262423;28;20040;-93
2023/10/30 15:10:18;;;;;;;25.80;17.40;;;;;;;;;;6261793;28;20056;-94
2023/10/30 15:13:20;;;;;;;28.60;17.15;;;;;;;;;;6257925;28;20060;-92
2023/10/30 15:16:22;;;;;;;25.80;17.85;;;;;;;;;;6276325;28;20045;-92
2023/10/30 15:19:25;;;;;;;29.00;16.95;;;;;;;;;;6258505;28;20063;-94
2023/10/30 15:22:27;;;;;;;30.70;17.48;;;;;;;;;;6275622;28;20057;-95
2023/10/30 15:25:30;;;;;;;28.52;16.80;;;;;;;;;;6274437;28;20049;-92
2023/10/30 15:28:32;;;;;;;24.93;15.20;;;;;;;;;;6277961;28;20165;-94
2023/10/30 15:31:34;;;;;;;22.02;14.82;;;;;;;;;;6277219;28;20467;-93
2023/10/30 15:34:36;;;;;;;21.88;13.88;;;;;;;;;;6263265;28;20725;-95
2023/10/30 15:37:38;;;;;;;22.15;14.18;;;;;;;;;;6258305;28;20268;-95
2023/10/30 15:40:41;;;;;;;21.25;14.02;;;;;;;;;;6273043;28;20045;-96
2023/10/30 15:43:43;;;;;;;19.63;13.02;;;;;;;;;;6260332;28;20068;-96
2023/10/30 15:46:45;;;;;;;19.10;11.40;;;;;;;;;;6274913;28;20078;-96
2023/10/30 15:49:48;;;;;;;18.45;11.93;;;;;;;;;;6277438;28;20063;-93
2023/10/30 15:52:50;;;;;;;15.68;10.68;;;;;;;;;;6276891;28;20052;-96
2023/10/30 15:55:54;;;;;;;18.00;11.00;;;;;;;;;;6272903;28;20074;-95
2023/10/30 15:58:56;;;;;;;17.33;10.68;;;;;;;;;;6275387;28;20117;-94
2023/10/30 16:01:57;;;;;;;15.20;10.05;;;;;;;;;;6251624;28;20064;-96
2023/10/30 16:05:00;;;;;;;14.57;10.27;;;;;;;;;;6256753;28;20053;-94
2023/10/30 16:08:02;;;;;;;13.82;9.38;;;;;;;;;;6274974;28;20048;-95
2023/10/30 16:14:30;;;;;;;16.02;9.02;;;;;;;;;;6256956;28;20104;-93
2023/10/30 16:17:32;;;;;;;12.43;8.57;;;;;;;;;;6258719;28;20053;-95
2023/10/30 16:20:34;;;;;;;14.07;9.75;;;;;;;;;;6279819;28;20067;-94
2023/10/30 16:23:36;;;;;;;12.70;9.18;;;;;;;;;;6277103;28;20045;-95
2023/10/30 16:26:40;;;;;;;12.38;8.85;;;;;;;;;;6277845;28;20053;-96
2023/10/30 16:29:41;;;;;;;13.43;8.88;;;;;;;;;;6279345;28;20367;-95
2023/10/30 16:32:44;;;;;;;12.00;8.40;;;;;;;;;;6255933;28;20070;-92
2023/10/30 16:35:46;;;;;;;14.60;8.18;;;;;;;;;;6258083;28;20060;-95
2023/10/30 16:38:48;;;;;;;11.25;7.90;;;;;;;;;;6275739;28;20057;-96
2023/10/30 16:41:51;;;;;;;14.68;8.23;;;;;;;;;;6276512;28;20053;-96
2023/10/30 16:44:53;;;;;;;12.70;7.68;;;;;;;;;;6259204;28;20080;-96
2023/10/30 16:47:55;;;;;;;13.55;8.20;;;;;;;;;;6275127;28;20091;-96
2023/10/30 16:50:57;;;;;;;13.98;7.88;;;;;;;;;;6270262;28;20106;-94
2023/10/30 16:53:59;;;;;;;11.63;8.23;;;;;;;;;;6276397;28;20051;-95
2023/10/30 16:57:03;;;;;;;13.10;8.27;;;;;;;;;;6277228;28;20057;-95
2023/10/30 17:00:06;;;;;;;12.20;7.72;;;;;;;;;;6272651;28;20057;-90
2023/10/30 17:03:08;;;;;;;14.38;8.15;;;;;;;;;;6274516;28;20087;-95
2023/10/30 17:06:12;;;;;;;10.13;6.57;;;;;;;;;;6243853;28;20148;-94
2023/10/30 17:09:14;;;;;;;12.23;7.63;;;;;;;;;;6256032;28;20114;-94
2023/10/30 17:12:17;;;;;;;11.73;7.47;;;;;;;;;;6275656;28;20060;-95
2023/10/30 17:15:19;;;;;;;15.07;7.30;;;;;;;;;;6272795;28;20229;-96
2023/10/30 17:18:26;;;;;;;32.95;7.80;;;;;;;;;;6273343;28;20060;-95
2023/10/30 17:21:28;;;;;;;10.32;6.80;;;;;;;;;;6259382;28;20045;-93
2023/10/30 17:24:30;;;;;;;12.32;7.32;;;;;;;;;;6276894;28;20051;-92
2023/10/30 17:27:33;;;;;;;14.57;8.10;;;;;;;;;;6273703;28;20045;-95
2023/10/30 17:30:35;;;;;;;11.63;7.05;;;;;;;;;;6276944;28;20214;-95
2023/10/30 17:33:37;;;;;;;12.98;8.10;;;;;;;;;;6275392;28;20279;-94
2023/10/30 17:36:39;;;;;;;16.80;9.00;;;;;;;;;;6269448;28;20045;-96
2023/10/30 17:39:41;;;;;;;16.23;10.48;;;;;;;;;;6278728;28;20064;-96
2023/10/30 17:42:44;;;;;;;17.70;10.98;;;;;;;;;;6273379;28;20373;-96
2023/10/30 17:45:47;;;;;;;16.65;11.52;;;;;;;;;;6244811;28;20256;-95
2023/10/30 17:48:48;;;;;;;18.00;11.20;;;;;;;;;;6274433;28;20111;-93